sensor_id;sensor_type;location;lat;lon;timestamp;temperature;humidity
21799;DHT22;24973;47.178;15.316;2024-01-25T00:00:40;11.20;80.90
21799;DHT22;24973;47.178;15.316;2024-01-25T00:03:29;11.20;80.80
21799;DHT22;24973;47.178;15.316;2024-01-25T00:06:18;11.20;80.50
21799;DHT22;24973;47.178;15.316;2024-01-25T00:09:08;11.20;81.90
21799;DHT22;24973;47.178;15.316;2024-01-25T00:11:57;11.30;79.90
21799;DHT22;24973;47.178;15.316;2024-01-25T00:14:47;11.30;81.30
21799;DHT22;24973;47.178;15.316;2024-01-25T00:17:36;11.20;82.00
21799;DHT22;24973;47.178;15.316;2024-01-25T00:20:24;11.10;82.50
21799;DHT22;24973;47.178;15.316;2024-01-25T00:23:13;10.80;82.50
21799;DHT22;24973;47.178;15.316;2024-01-25T00:26:02;10.80;82.00
21799;DHT22;24973;47.178;15.316;2024-01-25T00:28:52;10.70;83.40
21799;DHT22;24973;47.178;15.316;2024-01-25T00:31:42;10.60;83.60
21799;DHT22;24973;47.178;15.316;2024-01-25T00:34:31;10.50;83.00
21799;DHT22;24973;47.178;15.316;2024-01-25T00:37:21;10.40;84.40
21799;DHT22;24973;47.178;15.316;2024-01-25T00:40:11;10.30;84.40
21799;DHT22;24973;47.178;15.316;2024-01-25T00:43:01;10.30;85.40
21799;DHT22;24973;47.178;15.316;2024-01-25T00:45:51;10.10;85.60
21799;DHT22;24973;47.178;15.316;2024-01-25T00:48:42;10.00;85.90
21799;DHT22;24973;47.178;15.316;2024-01-25T00:51:32;9.90;85.10
21799;DHT22;24973;47.178;15.316;2024-01-25T00:54:23;9.90;84.60
21799;DHT22;24973;47.178;15.316;2024-01-25T00:57:12;9.90;84.10
21799;DHT22;24973;47.178;15.316;2024-01-25T01:00:02;10.10;83.70
21799;DHT22;24973;47.178;15.316;2024-01-25T01:02:53;10.10;83.40
21799;DHT22;24973;47.178;15.316;2024-01-25T01:05:44;10.20;83.70
21799;DHT22;24973;47.178;15.316;2024-01-25T01:08:34;10.20;83.30
21799;DHT22;24973;47.178;15.316;2024-01-25T01:11:24;10.20;83.60
21799;DHT22;24973;47.178;15.316;2024-01-25T01:14:12;10.10;84.80
21799;DHT22;24973;47.178;15.316;2024-01-25T01:17:01;10.00;85.30
21799;DHT22;24973;47.178;15.316;2024-01-25T01:19:50;9.90;85.80
21799;DHT22;24973;47.178;15.316;2024-01-25T01:22:41;9.70;86.40
21799;DHT22;24973;47.178;15.316;2024-01-25T01:25:30;9.60;87.20
21799;DHT22;24973;47.178;15.316;2024-01-25T01:28:18;9.40;88.00
21799;DHT22;24973;47.178;15.316;2024-01-25T01:31:07;9.40;86.70
21799;DHT22;24973;47.178;15.316;2024-01-25T01:33:56;9.30;87.60
21799;DHT22;24973;47.178;15.316;2024-01-25T01:36:45;9.30;88.40
21799;DHT22;24973;47.178;15.316;2024-01-25T01:39:35;9.10;87.90
21799;DHT22;24973;47.178;15.316;2024-01-25T01:42:24;9.10;86.20
21799;DHT22;24973;47.178;15.316;2024-01-25T01:45:13;9.20;86.30
21799;DHT22;24973;47.178;15.316;2024-01-25T01:48:02;9.30;87.20
21799;DHT22;24973;47.178;15.316;2024-01-25T01:50:52;9.20;87.50
21799;DHT22;24973;47.178;15.316;2024-01-25T01:53:41;9.20;87.90
21799;DHT22;24973;47.178;15.316;2024-01-25T01:56:31;9.10;89.50
21799;DHT22;24973;47.178;15.316;2024-01-25T01:59:20;9.00;89.50
21799;DHT22;24973;47.178;15.316;2024-01-25T02:02:12;9.00;89.90
21799;DHT22;24973;47.178;15.316;2024-01-25T02:05:01;8.90;88.10
21799;DHT22;24973;47.178;15.316;2024-01-25T02:07:51;9.00;87.20
21799;DHT22;24973;47.178;15.316;2024-01-25T02:10:41;9.10;87.00
21799;DHT22;24973;47.178;15.316;2024-01-25T02:13:31;9.30;86.60
21799;DHT22;24973;47.178;15.316;2024-01-25T02:16:20;9.40;85.50
21799;DHT22;24973;47.178;15.316;2024-01-25T02:19:09;9.60;85.10
21799;DHT22;24973;47.178;15.316;2024-01-25T02:21:59;9.70;85.20
21799;DHT22;24973;47.178;15.316;2024-01-25T02:24:49;9.70;85.40
21799;DHT22;24973;47.178;15.316;2024-01-25T02:27:39;9.60;85.50
21799;DHT22;24973;47.178;15.316;2024-01-25T02:30:32;9.70;84.10
21799;DHT22;24973;47.178;15.316;2024-01-25T02:33:21;9.80;84.40
21799;DHT22;24973;47.178;15.316;2024-01-25T02:36:10;9.80;84.80
21799;DHT22;24973;47.178;15.316;2024-01-25T02:38:59;9.80;84.80
21799;DHT22;24973;47.178;15.316;2024-01-25T02:41:49;9.70;85.40
21799;DHT22;24973;47.178;15.316;2024-01-25T02:44:38;9.70;85.70
21799;DHT22;24973;47.178;15.316;2024-01-25T02:47:27;9.60;85.40
21799;DHT22;24973;47.178;15.316;2024-01-25T02:50:16;9.60;85.80
21799;DHT22;24973;47.178;15.316;2024-01-25T02:53:05;9.50;86.10
21799;DHT22;24973;47.178;15.316;2024-01-25T02:55:53;9.40;86.00
21799;DHT22;24973;47.178;15.316;2024-01-25T02:58:44;9.30;87.70
21799;DHT22;24973;47.178;15.316;2024-01-25T03:01:39;9.20;88.40
21799;DHT22;24973;47.178;15.316;2024-01-25T03:04:29;9.10;88.20
21799;DHT22;24973;47.178;15.316;2024-01-25T03:07:18;9.00;88.60
21799;DHT22;24973;47.178;15.316;2024-01-25T03:10:07;8.90;87.70
21799;DHT22;24973;47.178;15.316;2024-01-25T03:12:56;9.00;86.40
21799;DHT22;24973;47.178;15.316;2024-01-25T03:15:47;9.10;86.30
21799;DHT22;24973;47.178;15.316;2024-01-25T03:18:35;9.10;84.20
21799;DHT22;24973;47.178;15.316;2024-01-25T03:21:24;9.30;84.20
21799;DHT22;24973;47.178;15.316;2024-01-25T03:24:13;9.30;83.70
21799;DHT22;24973;47.178;15.316;2024-01-25T03:27:02;9.40;81.60
21799;DHT22;24973;47.178;15.316;2024-01-25T03:29:52;9.60;80.60
21799;DHT22;24973;47.178;15.316;2024-01-25T03:32:42;9.60;80.60
21799;DHT22;24973;47.178;15.316;2024-01-25T03:35:31;9.70;81.20
21799;DHT22;24973;47.178;15.316;2024-01-25T03:38:20;9.60;80.80
21799;DHT22;24973;47.178;15.316;2024-01-25T03:41:09;9.60;80.20
21799;DHT22;24973;47.178;15.316;2024-01-25T03:43:58;9.60;80.80
21799;DHT22;24973;47.178;15.316;2024-01-25T03:46:46;9.60;80.70
21799;DHT22;24973;47.178;15.316;2024-01-25T03:49:37;9.50;81.40
21799;DHT22;24973;47.178;15.316;2024-01-25T03:52:26;9.50;82.10
21799;DHT22;24973;47.178;15.316;2024-01-25T03:55:17;9.40;82.80
21799;DHT22;24973;47.178;15.316;2024-01-25T03:58:06;9.20;82.40
21799;DHT22;24973;47.178;15.316;2024-01-25T04:00:55;9.30;82.40
21799;DHT22;24973;47.178;15.316;2024-01-25T04:03:44;9.20;83.30
21799;DHT22;24973;47.178;15.316;2024-01-25T04:06:34;9.30;83.40
21799;DHT22;24973;47.178;15.316;2024-01-25T04:09:23;9.30;83.50
21799;DHT22;24973;47.178;15.316;2024-01-25T04:12:12;9.20;83.80
21799;DHT22;24973;47.178;15.316;2024-01-25T04:15:01;9.10;83.40
21799;DHT22;24973;47.178;15.316;2024-01-25T04:17:50;9.10;83.70
21799;DHT22;24973;47.178;15.316;2024-01-25T04:20:41;9.00;85.10
21799;DHT22;24973;47.178;15.316;2024-01-25T04:23:33;9.00;85.00
21799;DHT22;24973;47.178;15.316;2024-01-25T04:26:22;9.00;85.40
21799;DHT22;24973;47.178;15.316;2024-01-25T04:29:11;8.80;86.00
21799;DHT22;24973;47.178;15.316;2024-01-25T04:32:00;8.80;86.50
21799;DHT22;24973;47.178;15.316;2024-01-25T04:34:49;8.70;87.30
21799;DHT22;24973;47.178;15.316;2024-01-25T04:37:38;8.60;86.90
21799;DHT22;24973;47.178;15.316;2024-01-25T04:40:28;8.60;87.20
21799;DHT22;24973;47.178;15.316;2024-01-25T04:43:17;8.50;87.50
21799;DHT22;24973;47.178;15.316;2024-01-25T04:46:06;8.50;88.00
21799;DHT22;24973;47.178;15.316;2024-01-25T04:48:55;8.50;88.20
21799;DHT22;24973;47.178;15.316;2024-01-25T04:51:44;8.50;88.60
21799;DHT22;24973;47.178;15.316;2024-01-25T04:54:33;8.50;88.30
21799;DHT22;24973;47.178;15.316;2024-01-25T04:57:23;8.60;88.30
21799;DHT22;24973;47.178;15.316;2024-01-25T05:00:13;8.70;89.00
21799;DHT22;24973;47.178;15.316;2024-01-25T05:03:03;8.70;88.80
21799;DHT22;24973;47.178;15.316;2024-01-25T05:05:52;8.80;88.40
21799;DHT22;24973;47.178;15.316;2024-01-25T05:08:42;8.80;88.70
21799;DHT22;24973;47.178;15.316;2024-01-25T05:11:31;8.80;88.80
21799;DHT22;24973;47.178;15.316;2024-01-25T05:14:21;8.90;89.00
21799;DHT22;24973;47.178;15.316;2024-01-25T05:17:10;8.90;88.90
21799;DHT22;24973;47.178;15.316;2024-01-25T05:19:59;8.90;89.20
21799;DHT22;24973;47.178;15.316;2024-01-25T05:22:48;8.90;89.40
21799;DHT22;24973;47.178;15.316;2024-01-25T05:25:37;8.80;90.00
21799;DHT22;24973;47.178;15.316;2024-01-25T05:28:26;8.80;90.10
21799;DHT22;24973;47.178;15.316;2024-01-25T05:31:16;8.70;90.20
21799;DHT22;24973;47.178;15.316;2024-01-25T05:34:05;8.60;90.50
21799;DHT22;24973;47.178;15.316;2024-01-25T05:36:54;8.60;90.80
21799;DHT22;24973;47.178;15.316;2024-01-25T05:39:43;8.50;90.90
21799;DHT22;24973;47.178;15.316;2024-01-25T05:42:32;8.40;91.20
21799;DHT22;24973;47.178;15.316;2024-01-25T05:45:20;8.30;91.30
21799;DHT22;24973;47.178;15.316;2024-01-25T05:48:12;8.10;91.60
21799;DHT22;24973;47.178;15.316;2024-01-25T05:51:00;8.00;92.40
21799;DHT22;24973;47.178;15.316;2024-01-25T05:53:49;8.10;92.50
21799;DHT22;24973;47.178;15.316;2024-01-25T05:56:38;8.10;92.50
21799;DHT22;24973;47.178;15.316;2024-01-25T05:59:27;8.00;92.80
21799;DHT22;24973;47.178;15.316;2024-01-25T06:02:16;8.00;93.20
21799;DHT22;24973;47.178;15.316;2024-01-25T06:05:07;8.00;93.30
21799;DHT22;24973;47.178;15.316;2024-01-25T06:07:56;8.00;93.40
21799;DHT22;24973;47.178;15.316;2024-01-25T06:10:45;8.10;93.40
21799;DHT22;24973;47.178;15.316;2024-01-25T06:13:34;8.20;93.50
21799;DHT22;24973;47.178;15.316;2024-01-25T06:16:23;8.20;93.60
21799;DHT22;24973;47.178;15.316;2024-01-25T06:19:11;8.30;93.70
21799;DHT22;24973;47.178;15.316;2024-01-25T06:22:02;8.30;93.70
21799;DHT22;24973;47.178;15.316;2024-01-25T06:24:51;8.30;93.80
21799;DHT22;24973;47.178;15.316;2024-01-25T06:27:40;8.30;93.70
21799;DHT22;24973;47.178;15.316;2024-01-25T06:30:29;8.30;93.90
21799;DHT22;24973;47.178;15.316;2024-01-25T06:33:18;8.30;93.90
21799;DHT22;24973;47.178;15.316;2024-01-25T06:36:07;8.20;94.10
21799;DHT22;24973;47.178;15.316;2024-01-25T06:38:58;8.20;94.30
21799;DHT22;24973;47.178;15.316;2024-01-25T06:41:47;8.20;94.30
21799;DHT22;24973;47.178;15.316;2024-01-25T06:44:36;8.20;94.40
21799;DHT22;24973;47.178;15.316;2024-01-25T06:47:25;8.30;94.50
21799;DHT22;24973;47.178;15.316;2024-01-25T06:50:14;8.30;94.50
21799;DHT22;24973;47.178;15.316;2024-01-25T06:53:04;8.30;94.80
21799;DHT22;24973;47.178;15.316;2024-01-25T06:55:54;8.30;94.70
21799;DHT22;24973;47.178;15.316;2024-01-25T06:58:43;8.90;94.90
21799;DHT22;24973;47.178;15.316;2024-01-25T07:01:32;8.40;94.80
21799;DHT22;24973;47.178;15.316;2024-01-25T07:04:21;8.50;94.80
21799;DHT22;24973;47.178;15.316;2024-01-25T07:07:10;8.60;94.90
21799;DHT22;24973;47.178;15.316;2024-01-25T07:10:02;8.70;95.10
21799;DHT22;24973;47.178;15.316;2024-01-25T07:12:53;8.70;95.30
21799;DHT22;24973;47.178;15.316;2024-01-25T07:15:43;8.80;95.50
21799;DHT22;24973;47.178;15.316;2024-01-25T07:18:31;8.80;95.70
21799;DHT22;24973;47.178;15.316;2024-01-25T07:21:20;8.70;95.50
21799;DHT22;24973;47.178;15.316;2024-01-25T07:24:09;8.70;95.70
21799;DHT22;24973;47.178;15.316;2024-01-25T07:26:58;8.80;95.70
21799;DHT22;24973;47.178;15.316;2024-01-25T07:29:48;8.80;95.40
21799;DHT22;24973;47.178;15.316;2024-01-25T07:32:37;8.80;95.10
21799;DHT22;24973;47.178;15.316;2024-01-25T07:35:29;9.00;95.30
21799;DHT22;24973;47.178;15.316;2024-01-25T07:38:18;9.10;95.30
21799;DHT22;24973;47.178;15.316;2024-01-25T07:41:06;9.00;95.10
21799;DHT22;24973;47.178;15.316;2024-01-25T07:43:55;9.00;95.40
21799;DHT22;24973;47.178;15.316;2024-01-25T07:46:45;9.00;95.40
21799;DHT22;24973;47.178;15.316;2024-01-25T07:49:35;9.00;95.30
21799;DHT22;24973;47.178;15.316;2024-01-25T07:52:24;8.90;95.30
21799;DHT22;24973;47.178;15.316;2024-01-25T07:55:13;8.90;95.40
21799;DHT22;24973;47.178;15.316;2024-01-25T07:58:02;8.80;95.10
21799;DHT22;24973;47.178;15.316;2024-01-25T08:00:51;8.80;95.40
21799;DHT22;24973;47.178;15.316;2024-01-25T08:03:41;8.90;95.20
21799;DHT22;24973;47.178;15.316;2024-01-25T08:06:30;9.00;95.10
21799;DHT22;24973;47.178;15.316;2024-01-25T08:09:19;9.10;95.10
21799;DHT22;24973;47.178;15.316;2024-01-25T08:12:08;9.10;95.10
21799;DHT22;24973;47.178;15.316;2024-01-25T08:14:57;9.10;95.10
21799;DHT22;24973;47.178;15.316;2024-01-25T08:17:46;9.20;95.20
21799;DHT22;24973;47.178;15.316;2024-01-25T08:20:37;9.20;94.90
21799;DHT22;24973;47.178;15.316;2024-01-25T08:23:27;9.20;95.00
21799;DHT22;24973;47.178;15.316;2024-01-25T08:26:15;9.30;94.80
21799;DHT22;24973;47.178;15.316;2024-01-25T08:29:04;9.30;94.70
21799;DHT22;24973;47.178;15.316;2024-01-25T08:31:53;9.30;94.70
21799;DHT22;24973;47.178;15.316;2024-01-25T08:34:42;9.30;94.60
21799;DHT22;24973;47.178;15.316;2024-01-25T08:37:32;9.30;94.80
21799;DHT22;24973;47.178;15.316;2024-01-25T08:40:23;9.30;94.80
21799;DHT22;24973;47.178;15.316;2024-01-25T08:43:13;9.40;94.80
21799;DHT22;24973;47.178;15.316;2024-01-25T08:46:01;9.50;94.60
21799;DHT22;24973;47.178;15.316;2024-01-25T08:48:50;9.60;94.60
21799;DHT22;24973;47.178;15.316;2024-01-25T08:51:39;9.60;94.40
21799;DHT22;24973;47.178;15.316;2024-01-25T08:54:30;9.90;94.20
21799;DHT22;24973;47.178;15.316;2024-01-25T08:57:18;9.60;94.20
21799;DHT22;24973;47.178;15.316;2024-01-25T09:00:08;9.70;94.00
21799;DHT22;24973;47.178;15.316;2024-01-25T09:02:58;9.80;93.90
21799;DHT22;24973;47.178;15.316;2024-01-25T09:05:47;10.00;93.70
21799;DHT22;24973;47.178;15.316;2024-01-25T09:08:36;10.10;93.00
21799;DHT22;24973;47.178;15.316;2024-01-25T09:11:26;10.20;93.00
21799;DHT22;24973;47.178;15.316;2024-01-25T09:14:15;10.30;92.80
21799;DHT22;24973;47.178;15.316;2024-01-25T09:17:04;10.30;92.20
21799;DHT22;24973;47.178;15.316;2024-01-25T09:19:53;10.30;91.30
21799;DHT22;24973;47.178;15.316;2024-01-25T09:22:46;10.20;91.50
21799;DHT22;24973;47.178;15.316;2024-01-25T09:25:35;10.30;91.40
21799;DHT22;24973;47.178;15.316;2024-01-25T09:28:25;10.40;91.00
21799;DHT22;24973;47.178;15.316;2024-01-25T09:31:14;10.50;90.40
21799;DHT22;24973;47.178;15.316;2024-01-25T09:34:03;10.50;90.30
21799;DHT22;24973;47.178;15.316;2024-01-25T09:36:52;10.60;90.00
21799;DHT22;24973;47.178;15.316;2024-01-25T09:39:41;10.70;89.90
21799;DHT22;24973;47.178;15.316;2024-01-25T09:42:30;10.80;88.20
21799;DHT22;24973;47.178;15.316;2024-01-25T09:45:20;10.80;88.50
21799;DHT22;24973;47.178;15.316;2024-01-25T09:48:09;10.90;88.10
21799;DHT22;24973;47.178;15.316;2024-01-25T09:50:59;11.00;87.50
21799;DHT22;24973;47.178;15.316;2024-01-25T09:53:49;11.10;87.10
21799;DHT22;24973;47.178;15.316;2024-01-25T09:56:40;11.20;86.20
21799;DHT22;24973;47.178;15.316;2024-01-25T09:59:29;11.30;85.10
21799;DHT22;24973;47.178;15.316;2024-01-25T10:02:20;11.30;85.10
21799;DHT22;24973;47.178;15.316;2024-01-25T10:05:09;11.50;83.20
21799;DHT22;24973;47.178;15.316;2024-01-25T10:07:58;11.50;83.50
21799;DHT22;24973;47.178;15.316;2024-01-25T10:10:48;11.60;81.90
21799;DHT22;24973;47.178;15.316;2024-01-25T10:13:40;11.60;80.50
21799;DHT22;24973;47.178;15.316;2024-01-25T10:16:30;11.60;79.60
21799;DHT22;24973;47.178;15.316;2024-01-25T10:19:22;11.60;80.00
21799;DHT22;24973;47.178;15.316;2024-01-25T10:22:11;11.70;79.90
21799;DHT22;24973;47.178;15.316;2024-01-25T10:25:00;11.80;78.90
21799;DHT22;24973;47.178;15.316;2024-01-25T10:27:50;11.80;78.40
21799;DHT22;24973;47.178;15.316;2024-01-25T10:30:39;12.00;79.20
21799;DHT22;24973;47.178;15.316;2024-01-25T10:33:28;12.10;78.10
21799;DHT22;24973;47.178;15.316;2024-01-25T10:36:20;12.20;77.80
21799;DHT22;24973;47.178;15.316;2024-01-25T10:39:09;12.30;75.70
21799;DHT22;24973;47.178;15.316;2024-01-25T10:41:59;12.50;73.90
21799;DHT22;24973;47.178;15.316;2024-01-25T10:44:48;13.10;73.40
21799;DHT22;24973;47.178;15.316;2024-01-25T10:47:37;13.70;70.70
21799;DHT22;24973;47.178;15.316;2024-01-25T10:50:28;14.30;69.90
21799;DHT22;24973;47.178;15.316;2024-01-25T10:53:18;14.90;66.00
21799;DHT22;24973;47.178;15.316;2024-01-25T10:56:08;14.90;64.80
21799;DHT22;24973;47.178;15.316;2024-01-25T10:58:57;15.00;66.10
21799;DHT22;24973;47.178;15.316;2024-01-25T11:01:46;15.20;65.00
21799;DHT22;24973;47.178;15.316;2024-01-25T11:04:36;15.60;64.10
21799;DHT22;24973;47.178;15.316;2024-01-25T11:07:25;16.10;62.50
21799;DHT22;24973;47.178;15.316;2024-01-25T11:10:19;16.00;60.50
21799;DHT22;24973;47.178;15.316;2024-01-25T11:13:14;15.90;59.80
21799;DHT22;24973;47.178;15.316;2024-01-25T11:16:13;16.30;61.20
21799;DHT22;24973;47.178;15.316;2024-01-25T11:19:05;16.70;58.90
21799;DHT22;24973;47.178;15.316;2024-01-25T11:21:54;17.00;58.70
21799;DHT22;24973;47.178;15.316;2024-01-25T11:24:43;17.00;57.60
21799;DHT22;24973;47.178;15.316;2024-01-25T11:27:34;17.40;57.50
21799;DHT22;24973;47.178;15.316;2024-01-25T11:30:25;16.90;55.80
21799;DHT22;24973;47.178;15.316;2024-01-25T11:33:14;16.70;57.40
21799;DHT22;24973;47.178;15.316;2024-01-25T11:36:04;16.30;56.90
21799;DHT22;24973;47.178;15.316;2024-01-25T11:38:54;16.10;56.60
21799;DHT22;24973;47.178;15.316;2024-01-25T11:41:44;15.40;58.70
21799;DHT22;24973;47.178;15.316;2024-01-25T11:44:36;15.80;58.30
21799;DHT22;24973;47.178;15.316;2024-01-25T11:47:25;15.80;57.40
21799;DHT22;24973;47.178;15.316;2024-01-25T11:50:13;15.90;58.40
21799;DHT22;24973;47.178;15.316;2024-01-25T11:53:03;15.90;57.70
21799;DHT22;24973;47.178;15.316;2024-01-25T11:55:53;16.00;58.50
21799;DHT22;24973;47.178;15.316;2024-01-25T11:58:45;16.00;57.90
21799;DHT22;24973;47.178;15.316;2024-01-25T12:01:36;16.20;58.00
21799;DHT22;24973;47.178;15.316;2024-01-25T12:04:25;16.50;58.20
21799;DHT22;24973;47.178;15.316;2024-01-25T12:07:14;16.80;57.60
21799;DHT22;24973;47.178;15.316;2024-01-25T12:10:05;17.00;57.10
21799;DHT22;24973;47.178;15.316;2024-01-25T12:12:55;17.10;56.80
21799;DHT22;24973;47.178;15.316;2024-01-25T12:15:46;16.80;57.50
21799;DHT22;24973;47.178;15.316;2024-01-25T12:18:37;17.10;57.50
21799;DHT22;24973;47.178;15.316;2024-01-25T12:21:26;17.40;56.80
21799;DHT22;24973;47.178;15.316;2024-01-25T12:24:15;17.40;55.50
21799;DHT22;24973;47.178;15.316;2024-01-25T12:27:04;17.40;55.60
21799;DHT22;24973;47.178;15.316;2024-01-25T12:29:53;17.40;54.60
21799;DHT22;24973;47.178;15.316;2024-01-25T12:32:42;17.30;55.00
21799;DHT22;24973;47.178;15.316;2024-01-25T12:35:33;17.30;54.70
21799;DHT22;24973;47.178;15.316;2024-01-25T12:38:22;17.40;55.10
21799;DHT22;24973;47.178;15.316;2024-01-25T12:41:12;17.40;54.50
21799;DHT22;24973;47.178;15.316;2024-01-25T12:44:01;17.20;54.90
21799;DHT22;24973;47.178;15.316;2024-01-25T12:46:51;17.30;55.00
21799;DHT22;24973;47.178;15.316;2024-01-25T12:49:40;17.40;54.40
21799;DHT22;24973;47.178;15.316;2024-01-25T12:52:32;17.50;54.10
21799;DHT22;24973;47.178;15.316;2024-01-25T12:55:21;17.50;54.40
21799;DHT22;24973;47.178;15.316;2024-01-25T12:58:10;17.60;54.50
21799;DHT22;24973;47.178;15.316;2024-01-25T13:00:59;17.40;54.20
21799;DHT22;24973;47.178;15.316;2024-01-25T13:03:48;17.30;54.00
21799;DHT22;24973;47.178;15.316;2024-01-25T13:06:37;17.20;54.30
21799;DHT22;24973;47.178;15.316;2024-01-25T13:09:28;17.20;53.90
21799;DHT22;24973;47.178;15.316;2024-01-25T13:12:20;17.10;54.40
21799;DHT22;24973;47.178;15.316;2024-01-25T13:15:09;17.40;53.80
21799;DHT22;24973;47.178;15.316;2024-01-25T13:17:58;17.70;53.90
21799;DHT22;24973;47.178;15.316;2024-01-25T13:20:48;18.10;53.70
21799;DHT22;24973;47.178;15.316;2024-01-25T13:23:37;18.10;53.00
21799;DHT22;24973;47.178;15.316;2024-01-25T13:26:27;17.90;52.70
21799;DHT22;24973;47.178;15.316;2024-01-25T13:29:16;17.60;53.30
21799;DHT22;24973;47.178;15.316;2024-01-25T13:32:05;17.60;53.20
21799;DHT22;24973;47.178;15.316;2024-01-25T13:34:54;17.80;53.20
21799;DHT22;24973;47.178;15.316;2024-01-25T13:37:43;18.00;52.20
21799;DHT22;24973;47.178;15.316;2024-01-25T13:40:32;18.50;52.00
21799;DHT22;24973;47.178;15.316;2024-01-25T13:43:22;18.70;52.30
21799;DHT22;24973;47.178;15.316;2024-01-25T13:46:11;19.00;51.00
21799;DHT22;24973;47.178;15.316;2024-01-25T13:49:00;19.40;51.10
21799;DHT22;24973;47.178;15.316;2024-01-25T13:51:48;19.70;50.10
21799;DHT22;24973;47.178;15.316;2024-01-25T13:54:37;20.20;49.00
21799;DHT22;24973;47.178;15.316;2024-01-25T13:57:26;20.00;48.90
21799;DHT22;24973;47.178;15.316;2024-01-25T14:00:16;20.20;48.80
21799;DHT22;24973;47.178;15.316;2024-01-25T14:03:05;18.90;48.30
21799;DHT22;24973;47.178;15.316;2024-01-25T14:05:54;18.70;49.50
21799;DHT22;24973;47.178;15.316;2024-01-25T14:08:44;18.80;49.10
21799;DHT22;24973;47.178;15.316;2024-01-25T14:11:33;19.30;48.90
21799;DHT22;24973;47.178;15.316;2024-01-25T14:14:22;19.50;48.60
21799;DHT22;24973;47.178;15.316;2024-01-25T14:17:12;19.90;48.80
21799;DHT22;24973;47.178;15.316;2024-01-25T14:20:01;19.50;47.80
21799;DHT22;24973;47.178;15.316;2024-01-25T14:22:51;19.70;47.30
21799;DHT22;24973;47.178;15.316;2024-01-25T14:25:40;19.80;47.30
21799;DHT22;24973;47.178;15.316;2024-01-25T14:28:28;19.90;47.20
21799;DHT22;24973;47.178;15.316;2024-01-25T14:31:17;19.90;47.50
21799;DHT22;24973;47.178;15.316;2024-01-25T14:34:07;19.80;47.40
21799;DHT22;24973;47.178;15.316;2024-01-25T14:36:56;20.30;47.60
21799;DHT22;24973;47.178;15.316;2024-01-25T14:39:45;19.40;45.60
21799;DHT22;24973;47.178;15.316;2024-01-25T14:42:37;19.30;46.40
21799;DHT22;24973;47.178;15.316;2024-01-25T14:45:25;19.50;46.90
21799;DHT22;24973;47.178;15.316;2024-01-25T14:48:15;19.50;45.80
21799;DHT22;24973;47.178;15.316;2024-01-25T14:51:06;19.30;45.60
21799;DHT22;24973;47.178;15.316;2024-01-25T14:53:55;18.00;46.80
21799;DHT22;24973;47.178;15.316;2024-01-25T14:56:44;17.70;46.90
21799;DHT22;24973;47.178;15.316;2024-01-25T14:59:36;16.60;47.50
21799;DHT22;24973;47.178;15.316;2024-01-25T15:02:25;15.90;48.70
21799;DHT22;24973;47.178;15.316;2024-01-25T15:05:14;15.70;49.90
21799;DHT22;24973;47.178;15.316;2024-01-25T15:08:05;15.70;49.90
21799;DHT22;24973;47.178;15.316;2024-01-25T15:10:54;15.40;50.60
21799;DHT22;24973;47.178;15.316;2024-01-25T15:13:43;14.80;50.90
21799;DHT22;24973;47.178;15.316;2024-01-25T15:16:32;14.30;51.60
21799;DHT22;24973;47.178;15.316;2024-01-25T15:19:21;13.90;53.30
21799;DHT22;24973;47.178;15.316;2024-01-25T15:22:10;13.50;54.00
21799;DHT22;24973;47.178;15.316;2024-01-25T15:25:01;12.80;53.30
21799;DHT22;24973;47.178;15.316;2024-01-25T15:27:49;12.40;53.60
21799;DHT22;24973;47.178;15.316;2024-01-25T15:30:39;12.00;54.60
21799;DHT22;24973;47.178;15.316;2024-01-25T15:33:27;11.80;55.10
21799;DHT22;24973;47.178;15.316;2024-01-25T15:36:16;11.60;55.40
21799;DHT22;24973;47.178;15.316;2024-01-25T15:39:07;11.40;55.50
21799;DHT22;24973;47.178;15.316;2024-01-25T15:41:58;11.30;56.00
21799;DHT22;24973;47.178;15.316;2024-01-25T15:44:47;11.20;56.20
21799;DHT22;24973;47.178;15.316;2024-01-25T15:47:36;11.20;56.00
21799;DHT22;24973;47.178;15.316;2024-01-25T15:50:26;11.10;56.30
21799;DHT22;24973;47.178;15.316;2024-01-25T15:53:15;11.00;56.60
21799;DHT22;24973;47.178;15.316;2024-01-25T15:56:04;11.00;56.40
21799;DHT22;24973;47.178;15.316;2024-01-25T15:58:55;11.00;56.70
21799;DHT22;24973;47.178;15.316;2024-01-25T16:01:44;10.90;57.50
21799;DHT22;24973;47.178;15.316;2024-01-25T16:04:33;10.80;57.00
21799;DHT22;24973;47.178;15.316;2024-01-25T16:07:23;10.70;57.60
21799;DHT22;24973;47.178;15.316;2024-01-25T16:10:13;10.70;56.90
21799;DHT22;24973;47.178;15.316;2024-01-25T16:13:02;9.40;56.80
21799;DHT22;24973;47.178;15.316;2024-01-25T16:15:52;10.70;57.00
21799;DHT22;24973;47.178;15.316;2024-01-25T16:18:41;10.70;57.40
21799;DHT22;24973;47.178;15.316;2024-01-25T16:21:30;10.60;58.10
21799;DHT22;24973;47.178;15.316;2024-01-25T16:24:19;10.50;58.60
21799;DHT22;24973;47.178;15.316;2024-01-25T16:27:08;10.40;57.90
21799;DHT22;24973;47.178;15.316;2024-01-25T16:29:57;10.40;58.60
21799;DHT22;24973;47.178;15.316;2024-01-25T16:32:47;10.40;58.50
21799;DHT22;24973;47.178;15.316;2024-01-25T16:35:36;10.20;58.20
21799;DHT22;24973;47.178;15.316;2024-01-25T16:38:25;10.20;58.60
21799;DHT22;24973;47.178;15.316;2024-01-25T16:41:15;10.10;59.60
21799;DHT22;24973;47.178;15.316;2024-01-25T16:44:04;10.00;59.30
21799;DHT22;24973;47.178;15.316;2024-01-25T16:46:53;10.00;58.70
21799;DHT22;24973;47.178;15.316;2024-01-25T16:49:44;10.00;59.50
21799;DHT22;24973;47.178;15.316;2024-01-25T16:52:33;9.90;59.90
21799;DHT22;24973;47.178;15.316;2024-01-25T16:55:21;10.30;61.40
21799;DHT22;24973;47.178;15.316;2024-01-25T16:58:10;9.60;60.50
21799;DHT22;24973;47.178;15.316;2024-01-25T17:00:59;9.70;59.00
21799;DHT22;24973;47.178;15.316;2024-01-25T17:03:48;9.60;60.50
21799;DHT22;24973;47.178;15.316;2024-01-25T17:06:39;9.60;58.90
21799;DHT22;24973;47.178;15.316;2024-01-25T17:09:29;9.60;59.70
21799;DHT22;24973;47.178;15.316;2024-01-25T17:12:17;9.60;61.00
21799;DHT22;24973;47.178;15.316;2024-01-25T17:15:07;9.40;60.50
21799;DHT22;24973;47.178;15.316;2024-01-25T17:17:56;9.30;61.40
21799;DHT22;24973;47.178;15.316;2024-01-25T17:20:45;9.20;61.70
21799;DHT22;24973;47.178;15.316;2024-01-25T17:23:35;9.10;61.40
21799;DHT22;24973;47.178;15.316;2024-01-25T17:26:24;9.00;61.40
21799;DHT22;24973;47.178;15.316;2024-01-25T17:29:13;9.10;62.40
21799;DHT22;24973;47.178;15.316;2024-01-25T17:32:02;9.00;62.40
21799;DHT22;24973;47.178;15.316;2024-01-25T17:34:51;8.90;62.50
21799;DHT22;24973;47.178;15.316;2024-01-25T17:37:39;8.80;63.20
21799;DHT22;24973;47.178;15.316;2024-01-25T17:40:30;8.60;63.90